Time;durP1;ratioP1;P1;durP2;ratioP2;P2;SDS_P1;SDS_P2;PMS_P1;PMS_P2;Temp;Humidity;BMP_temperature;BMP_pressure;BME280_temperature;BME280_humidity;BME280_pressure;Samples;Min_cycle;Max_cycle;Signal;HPM_P1;HPM_P2
2023/11/06 00:00:33;;;;;;;10.30;9.90;;;11.80;99.90;;;;;;4869373;29;20231;-50
2023/11/06 00:02:59;;;;;;;10.93;10.43;;;11.70;1.00;;;;;;4870197;29;20967;-47
2023/11/06 00:05:25;;;;;;;10.77;10.30;;;11.60;1.00;;;;;;4870397;29;20441;-50
2023/11/06 00:07:51;;;;;;;10.50;10.10;;;11.70;1.00;;;;;;4869650;29;20466;-51
2023/11/06 00:10:17;;;;;;;10.67;10.17;;;11.60;1.00;;;;;;4870049;29;20442;-51
2023/11/06 00:12:43;;;;;;;10.60;9.90;;;11.50;1.00;;;;;;4870406;29;20199;-50
2023/11/06 00:15:09;;;;;;;10.47;10.07;;;11.50;1.00;;;;;;4852813;29;20472;-47
2023/11/06 00:17:37;;;;;;;10.80;10.30;;;11.50;1.00;;;;;;4869859;29;20919;-53
2023/11/06 00:20:03;;;;;;;10.27;9.80;;;11.50;1.00;;;;;;4869520;29;20447;-52
2023/11/06 00:22:30;;;;;;;10.20;9.80;;;11.40;1.00;;;;;;4869317;29;20448;-52
2023/11/06 00:24:56;;;;;;;11.37;10.57;;;11.40;1.00;;;;;;4869749;29;20450;-50
2023/11/06 00:27:25;;;;;;;10.37;9.87;;;11.40;1.00;;;;;;4869946;29;20515;-50
2023/11/06 00:29:50;;;;;;;10.50;10.10;;;11.40;1.00;;;;;;4870399;29;20763;-50
2023/11/06 00:32:16;;;;;;;10.60;10.10;;;11.40;1.00;;;;;;4870414;29;20436;-51
2023/11/06 00:34:43;;;;;;;10.40;10.00;;;11.40;1.00;;;;;;4867720;29;20489;-51
2023/11/06 00:37:08;;;;;;;10.90;10.40;;;11.40;1.00;;;;;;4869938;29;20420;-50
2023/11/06 00:39:37;;;;;;;10.63;10.23;;;11.40;1.00;;;;;;4870099;29;20439;-53
2023/11/06 00:42:04;;;;;;;10.80;10.30;;;11.40;1.00;;;;;;4869878;29;20192;-49
2023/11/06 00:44:30;;;;;;;10.80;10.30;;;11.30;1.00;;;;;;4870055;29;20432;-50
2023/11/06 00:46:55;;;;;;;10.60;10.10;;;11.40;1.00;;;;;;4869727;29;20945;-49
2023/11/06 00:49:21;;;;;;;10.97;10.37;;;11.40;1.00;;;;;;4868104;29;20223;-53
2023/11/06 00:51:47;;;;;;;10.80;10.30;;;11.40;1.00;;;;;;4869891;29;20207;-50
2023/11/06 00:54:16;;;;;;;10.57;10.10;;;11.40;1.00;;;;;;4869103;29;20231;-52
2023/11/06 00:56:41;;;;;;;10.60;10.10;;;11.40;1.00;;;;;;4869099;29;20468;-50
2023/11/06 00:59:07;;;;;;;10.57;10.10;;;11.50;1.00;;;;;;4869193;29;20499;-48
2023/11/06 01:01:33;;;;;;;10.80;10.20;;;11.50;1.00;;;;;;4869082;29;20192;-48
2023/11/06 01:03:59;;;;;;;10.77;10.27;;;11.40;1.00;;;;;;4868293;29;20196;-48
2023/11/06 01:06:25;;;;;;;10.67;10.03;;;11.50;1.00;;;;;;4867812;29;20248;-51
2023/11/06 01:08:51;;;;;;;10.73;10.33;;;11.50;1.00;;;;;;4869776;29;20436;-49
2023/11/06 01:11:17;;;;;;;10.90;10.33;;;11.50;1.00;;;;;;4869347;29;20440;-48
2023/11/06 01:13:43;;;;;;;10.60;10.20;;;11.40;1.00;;;;;;4868678;29;20970;-49
2023/11/06 01:16:09;;;;;;;10.87;10.30;;;11.50;1.00;;;;;;4867874;29;20441;-45
2023/11/06 01:18:35;;;;;;;10.20;9.70;;;11.60;1.00;;;;;;4869273;29;20332;-48
2023/11/06 01:21:00;;;;;;;10.47;10.07;;;11.50;1.00;;;;;;4868775;29;21479;-49
2023/11/06 01:23:26;;;;;;;10.43;10.00;;;11.50;1.00;;;;;;4869519;29;20192;-50
2023/11/06 01:25:52;;;;;;;10.80;10.23;;;11.40;1.00;;;;;;4868606;29;20266;-50
2023/11/06 01:28:17;;;;;;;10.80;10.30;;;11.50;1.00;;;;;;4868708;29;20809;-52
2023/11/06 01:30:43;;;;;;;11.30;10.50;;;11.40;1.00;;;;;;4868727;29;20192;-49
2023/11/06 01:33:09;;;;;;;10.57;10.13;;;11.50;1.00;;;;;;4868676;29;20191;-46
2023/11/06 01:35:34;;;;;;;10.63;10.13;;;11.60;1.00;;;;;;4868948;29;20299;-47
2023/11/06 01:38:01;;;;;;;10.40;10.00;;;11.60;1.00;;;;;;4868957;29;20212;-50
2023/11/06 01:40:32;;;;;;;10.60;10.20;;;11.60;1.00;;;;;;4869013;29;20312;-52
2023/11/06 01:43:05;;;;;;;10.77;10.30;;;11.50;1.00;;;;;;4868331;29;20846;-49
2023/11/06 01:45:35;;;;;;;10.60;10.10;;;11.60;1.00;;;;;;4868739;29;21025;-49
2023/11/06 01:48:03;;;;;;;10.73;10.10;;;11.60;1.00;;;;;;4868954;29;20432;-51
2023/11/06 01:50:31;;;;;;;10.83;10.43;;;11.60;1.00;;;;;;4868196;29;20444;-46
2023/11/06 01:52:58;;;;;;;10.30;9.90;;;11.60;1.00;;;;;;4868352;29;20810;-49
2023/11/06 01:55:27;;;;;;;10.57;9.97;;;11.60;1.00;;;;;;4867606;29;20640;-52
2023/11/06 01:57:54;;;;;;;10.53;10.13;;;11.60;1.00;;;;;;4867304;29;20455;-52
2023/11/06 02:00:23;;;;;;;10.43;9.93;;;11.60;1.00;;;;;;4851038;29;20495;-51
2023/11/06 02:02:49;;;;;;;10.50;10.10;;;11.60;1.00;;;;;;4867791;29;20482;-49
2023/11/06 02:05:17;;;;;;;10.60;10.10;;;11.60;1.00;;;;;;4868337;29;20602;-47
2023/11/06 02:07:43;;;;;;;10.30;9.90;;;11.50;1.00;;;;;;4868369;29;20435;-48
2023/11/06 02:10:09;;;;;;;10.83;10.33;;;11.50;1.00;;;;;;4867717;29;20459;-46
2023/11/06 02:12:35;;;;;;;10.40;10.00;;;11.60;1.00;;;;;;4867538;29;20460;-47
2023/11/06 02:15:00;;;;;;;10.37;9.87;;;11.60;1.00;;;;;;4868165;29;20215;-49
2023/11/06 02:17:26;;;;;;;10.47;10.07;;;11.60;1.00;;;;;;4867458;29;20606;-51
2023/11/06 02:19:52;;;;;;;10.30;9.83;;;11.60;1.00;;;;;;4867202;29;20254;-47
2023/11/06 02:22:22;;;;;;;9.30;8.90;;;11.60;1.00;;;;;;4868123;29;20180;-53
2023/11/06 02:24:49;;;;;;;10.23;9.73;;;11.60;1.00;;;;;;4867980;29;20502;-49
2023/11/06 02:27:15;;;;;;;10.93;10.43;;;11.70;1.00;;;;;;4866771;29;20859;-51
2023/11/06 02:29:42;;;;;;;10.43;9.77;;;11.70;1.00;;;;;;4868403;29;20436;-46
2023/11/06 02:32:09;;;;;;;10.87;10.37;;;11.70;1.00;;;;;;4867244;29;20444;-53
2023/11/06 02:34:38;;;;;;;10.70;10.20;;;11.80;1.00;;;;;;4866510;29;20575;-48
2023/11/06 02:37:04;;;;;;;10.87;10.37;;;11.80;1.00;;;;;;4867282;29;20472;-52
2023/11/06 02:39:34;;;;;;;10.90;10.40;;;11.80;1.00;;;;;;4867891;29;20435;-49
2023/11/06 02:42:03;;;;;;;10.90;10.40;;;11.80;1.00;;;;;;4867629;29;20424;-50
2023/11/06 02:44:29;;;;;;;10.50;10.00;;;11.90;1.00;;;;;;4867304;29;21051;-51
2023/11/06 02:46:55;;;;;;;10.63;10.13;;;11.90;1.00;;;;;;4866950;29;20441;-49
2023/11/06 02:49:22;;;;;;;10.30;9.90;;;11.90;1.00;;;;;;4867045;29;20907;-50
2023/11/06 02:51:48;;;;;;;10.50;10.00;;;12.00;1.00;;;;;;4866898;29;20947;-48
2023/11/06 02:54:13;;;;;;;10.90;10.30;;;12.00;1.00;;;;;;4866159;29;20472;-48
2023/11/06 02:56:40;;;;;;;10.80;10.30;;;12.10;1.00;;;;;;4866381;29;20638;-49
2023/11/06 02:59:07;;;;;;;10.60;10.20;;;12.10;1.00;;;;;;4867373;29;20553;-52
2023/11/06 03:01:34;;;;;;;10.43;10.03;;;12.00;1.00;;;;;;4867678;29;20832;-48
2023/11/06 03:04:00;;;;;;;10.70;10.10;;;12.10;1.00;;;;;;4866591;29;20444;-50
2023/11/06 03:06:27;;;;;;;10.30;9.80;;;12.00;1.00;;;;;;4867615;29;20446;-51
2023/11/06 03:08:54;;;;;;;10.50;10.03;;;12.10;1.00;;;;;;4867072;29;20454;-49
2023/11/06 03:11:20;;;;;;;10.50;10.10;;;12.00;1.00;;;;;;4866002;29;20448;-51
2023/11/06 03:13:46;;;;;;;10.50;10.07;;;11.90;1.00;;;;;;4866535;29;20486;-48
2023/11/06 03:16:12;;;;;;;10.40;10.00;;;11.80;1.00;;;;;;4866376;29;20444;-53
2023/11/06 03:18:37;;;;;;;10.00;9.60;;;11.80;1.00;;;;;;4866505;29;20196;-49
2023/11/06 03:21:03;;;;;;;9.90;9.50;;;11.80;1.00;;;;;;4866347;29;20278;-51
2023/11/06 03:23:30;;;;;;;10.23;9.83;;;11.70;1.00;;;;;;4867020;29;20631;-49
2023/11/06 03:25:55;;;;;;;10.20;9.70;;;11.60;1.00;;;;;;4866681;29;20869;-51
2023/11/06 03:28:21;;;;;;;10.20;9.80;;;11.60;1.00;;;;;;4866175;29;20440;-49
2023/11/06 03:30:47;;;;;;;10.20;9.70;;;11.50;1.00;;;;;;4867036;29;20200;-51
2023/11/06 03:33:12;;;;;;;10.10;9.70;;;11.50;1.00;;;;;;4866719;29;21034;-49
2023/11/06 03:35:38;;;;;;;9.73;9.37;;;11.50;1.00;;;;;;4866961;29;20295;-47
2023/11/06 03:38:03;;;;;;;10.00;9.60;;;11.50;1.00;;;;;;4866655;29;20196;-53
2023/11/06 03:40:29;;;;;;;9.97;9.53;;;11.40;1.00;;;;;;4866413;29;20224;-43
2023/11/06 03:42:55;;;;;;;10.00;9.60;;;11.40;1.00;;;;;;4867100;29;20299;-47
2023/11/06 03:45:20;;;;;;;10.30;9.70;;;11.40;1.00;;;;;;4866117;29;20614;-49
2023/11/06 03:47:46;;;;;;;10.40;9.90;;;11.40;1.00;;;;;;4866808;29;20244;-48
2023/11/06 03:50:12;;;;;;;10.40;9.80;;;11.40;1.00;;;;;;4866653;29;20200;-49
2023/11/06 03:52:38;;;;;;;10.20;9.80;;;11.40;1.00;;;;;;4866756;29;20188;-53
2023/11/06 03:55:04;;;;;;;10.53;10.03;;;11.40;1.00;;;;;;4865919;29;20512;-51
2023/11/06 03:57:29;;;;;;;10.57;10.07;;;11.40;1.00;;;;;;4866377;29;20192;-43
2023/11/06 03:59:55;;;;;;;10.23;9.70;;;11.30;1.00;;;;;;4865896;29;21281;-46
2023/11/06 04:02:21;;;;;;;10.10;9.70;;;11.40;1.00;;;;;;4865398;29;20196;-48
2023/11/06 04:04:47;;;;;;;10.50;10.10;;;11.40;1.00;;;;;;4865711;29;20199;-51
2023/11/06 04:07:13;;;;;;;10.07;9.67;;;11.40;1.00;;;;;;4866926;29;20788;-49
2023/11/06 04:09:38;;;;;;;10.20;9.80;;;11.50;1.00;;;;;;4866295;29;20458;-49
2023/11/06 04:12:04;;;;;;;9.50;9.10;;;11.40;1.00;;;;;;4867079;29;20640;-53
2023/11/06 04:14:30;;;;;;;9.50;9.10;;;11.40;1.00;;;;;;4849803;29;20225;-48
2023/11/06 04:16:56;;;;;;;9.60;9.20;;;11.40;1.00;;;;;;4865637;29;20444;-52
2023/11/06 04:19:21;;;;;;;10.20;9.70;;;11.40;1.00;;;;;;4865404;29;20263;-48
2023/11/06 04:21:47;;;;;;;10.10;9.63;;;11.30;1.00;;;;;;4849773;29;20295;-51
2023/11/06 04:24:12;;;;;;;9.90;9.50;;;11.30;1.00;;;;;;4865326;29;20598;-47
2023/11/06 04:26:38;;;;;;;9.43;9.03;;;11.30;1.00;;;;;;4866777;29;20204;-52
2023/11/06 04:29:04;;;;;;;9.53;9.13;;;11.30;1.00;;;;;;4866527;29;20199;-46
2023/11/06 04:31:30;;;;;;;10.33;9.63;;;11.20;1.00;;;;;;4866740;29;20180;-48
2023/11/06 04:33:55;;;;;;;10.50;9.80;;;11.10;1.00;;;;;;4865347;29;20239;-49
2023/11/06 04:36:21;;;;;;;9.50;9.10;;;11.20;1.00;;;;;;4866715;29;20230;-45
2023/11/06 04:38:47;;;;;;;10.23;9.57;;;11.10;1.00;;;;;;4866013;29;20543;-47
2023/11/06 04:41:12;;;;;;;9.57;9.10;;;11.10;1.00;;;;;;4869456;29;20187;-51
2023/11/06 04:43:38;;;;;;;9.50;9.10;;;11.10;1.00;;;;;;4868995;29;20199;-45
2023/11/06 04:46:04;;;;;;;9.20;8.90;;;11.00;1.00;;;;;;4869151;29;20331;-48
2023/11/06 04:48:30;;;;;;;10.10;9.60;;;11.00;1.00;;;;;;4869147;29;20279;-49
2023/11/06 04:50:56;;;;;;;10.63;10.10;;;11.10;1.00;;;;;;4869481;29;20428;-49
2023/11/06 04:53:21;;;;;;;10.47;10.00;;;11.10;1.00;;;;;;4869231;29;20192;-49
2023/11/06 04:55:49;;;;;;;10.30;9.70;;;11.10;1.00;;;;;;4869235;29;20215;-51
2023/11/06 04:58:15;;;;;;;10.07;9.67;;;11.10;1.00;;;;;;4869071;29;20306;-52
2023/11/06 05:00:41;;;;;;;9.87;9.47;;;11.10;1.00;;;;;;4868266;29;20691;-43
2023/11/06 05:03:07;;;;;;;10.80;10.17;;;11.10;1.00;;;;;;4869566;29;20188;-42
2023/11/06 05:05:33;;;;;;;8.90;8.60;;;11.00;1.00;;;;;;4869331;29;20451;-40
2023/11/06 05:07:58;;;;;;;9.83;9.43;;;11.00;1.00;;;;;;4868704;29;20221;-42
2023/11/06 05:10:24;;;;;;;10.00;9.60;;;11.00;1.00;;;;;;4868418;29;20531;-41
2023/11/06 05:12:50;;;;;;;9.50;9.10;;;11.00;1.00;;;;;;4869601;29;20982;-40
2023/11/06 05:15:15;;;;;;;10.23;9.73;;;11.00;1.00;;;;;;4868366;29;20215;-43
2023/11/06 05:17:41;;;;;;;9.73;9.13;;;10.90;1.00;;;;;;4868791;29;20663;-40
2023/11/06 05:20:09;;;;;;;9.60;9.10;;;10.90;1.00;;;;;;4869415;29;20631;-42
2023/11/06 05:22:37;;;;;;;9.33;8.93;;;10.90;1.00;;;;;;4869417;29;20236;-46
2023/11/06 05:25:03;;;;;;;9.10;8.60;;;10.90;1.00;;;;;;4868098;29;20450;-42
2023/11/06 05:27:29;;;;;;;10.00;9.43;;;10.90;1.00;;;;;;4867887;29;20495;-40
2023/11/06 05:29:54;;;;;;;9.07;8.67;;;10.80;1.00;;;;;;4865085;29;20868;-43
2023/11/06 05:32:20;;;;;;;10.20;9.70;;;10.80;1.00;;;;;;4868872;29;20552;-45
2023/11/06 05:34:46;;;;;;;9.40;9.00;;;10.70;1.00;;;;;;4868893;29;20775;-41
2023/11/06 05:37:11;;;;;;;9.97;9.47;;;10.60;1.00;;;;;;4868343;29;20188;-44
2023/11/06 05:39:39;;;;;;;9.20;8.80;;;10.50;1.00;;;;;;4868307;29;20662;-42
2023/11/06 05:42:08;;;;;;;10.87;10.17;;;10.50;1.00;;;;;;4867610;29;20198;-45
2023/11/06 05:44:33;;;;;;;10.30;9.60;;;10.60;1.00;;;;;;4868847;29;20416;-46
2023/11/06 05:46:59;;;;;;;9.90;9.40;;;10.60;1.00;;;;;;4867453;29;20436;-41
2023/11/06 05:49:25;;;;;;;10.07;9.67;;;10.60;1.00;;;;;;4868245;29;20531;-41
2023/11/06 05:51:51;;;;;;;10.27;9.73;;;10.60;1.00;;;;;;4867992;29;21228;-43
2023/11/06 05:54:19;;;;;;;9.93;9.43;;;10.60;1.00;;;;;;4867724;29;20208;-41
2023/11/06 05:56:44;;;;;;;9.43;9.07;;;10.60;1.00;;;;;;4867838;29;20204;-40
2023/11/06 05:59:10;;;;;;;9.90;9.50;;;10.60;1.00;;;;;;4867601;29;20822;-42
2023/11/06 06:01:36;;;;;;;10.37;9.90;;;10.70;1.00;;;;;;4867541;29;21062;-41
2023/11/06 06:04:01;;;;;;;9.60;9.10;;;10.70;1.00;;;;;;4867785;29;20192;-41
2023/11/06 06:06:27;;;;;;;10.37;9.77;;;10.80;1.00;;;;;;4851474;29;20228;-41
2023/11/06 06:08:53;;;;;;;9.50;9.10;;;10.80;1.00;;;;;;4868385;29;20651;-41
2023/11/06 06:11:19;;;;;;;9.93;9.53;;;10.80;1.00;;;;;;4868332;29;20200;-41
2023/11/06 06:13:46;;;;;;;10.27;9.77;;;10.80;1.00;;;;;;4850256;29;20490;-47
2023/11/06 06:16:12;;;;;;;9.03;8.73;;;10.90;1.00;;;;;;4867661;29;20592;-41
2023/11/06 06:18:38;;;;;;;9.80;9.30;;;10.90;1.00;;;;;;4867923;29;21182;-41
2023/11/06 06:21:04;;;;;;;9.90;9.50;;;11.00;1.00;;;;;;4868351;29;20433;-41
2023/11/06 06:23:30;;;;;;;9.50;9.00;;;11.20;1.00;;;;;;4868234;29;20593;-43
2023/11/06 06:25:55;;;;;;;9.53;8.93;;;11.30;1.00;;;;;;4868075;29;20440;-41
2023/11/06 06:28:21;;;;;;;9.37;8.97;;;11.40;1.00;;;;;;4868184;29;20199;-40
2023/11/06 06:30:47;;;;;;;9.83;9.43;;;11.50;1.00;;;;;;4867232;29;20211;-46
2023/11/06 06:33:12;;;;;;;9.93;9.53;;;11.40;1.00;;;;;;4867310;29;20196;-40
2023/11/06 06:35:38;;;;;;;10.03;9.50;;;11.40;1.00;;;;;;4866749;29;20767;-41
2023/11/06 06:38:03;;;;;;;9.00;8.60;;;11.40;1.00;;;;;;4867496;29;20184;-42
2023/11/06 06:40:29;;;;;;;10.30;9.90;;;11.40;1.00;;;;;;4850027;29;20211;-40
2023/11/06 06:42:55;;;;;;;9.40;9.10;;;11.60;1.00;;;;;;4867207;29;20196;-45
2023/11/06 06:45:20;;;;;;;8.90;8.50;;;11.60;1.00;;;;;;4865534;29;20188;-41
2023/11/06 06:47:46;;;;;;;9.43;9.03;;;11.60;1.00;;;;;;4849617;29;20195;-42
2023/11/06 06:50:11;;;;;;;9.20;8.90;;;11.60;1.00;;;;;;4867408;29;20279;-44
2023/11/06 06:52:37;;;;;;;10.10;9.70;;;11.60;1.00;;;;;;4867591;29;20194;-42
2023/11/06 06:55:03;;;;;;;10.50;9.90;;;11.60;1.00;;;;;;4849823;29;20258;-41
2023/11/06 06:57:29;;;;;;;9.60;9.20;;;11.60;1.00;;;;;;4866150;29;20247;-40
2023/11/06 06:59:55;;;;;;;9.57;9.17;;;11.70;1.00;;;;;;4867128;29;20472;-46
2023/11/06 07:02:21;;;;;;;9.03;8.63;;;11.80;1.00;;;;;;4849078;29;20339;-41
2023/11/06 07:04:46;;;;;;;9.90;9.50;;;11.80;1.00;;;;;;4866647;29;20448;-41
2023/11/06 07:07:12;;;;;;;10.13;9.47;;;11.80;1.00;;;;;;4865650;29;20196;-43
2023/11/06 07:09:38;;;;;;;9.80;9.30;;;11.90;1.00;;;;;;4866408;29;20202;-44
2023/11/06 07:12:04;;;;;;;10.90;9.93;;;12.00;1.00;;;;;;4866912;29;20188;-47
2023/11/06 07:14:31;;;;;;;9.77;9.13;;;12.00;1.00;;;;;;4866883;29;20319;-42
2023/11/06 07:17:03;;;;;;;10.63;10.07;;;12.00;1.00;;;;;;4866583;29;20422;-43
2023/11/06 07:19:29;;;;;;;9.93;9.53;;;12.10;1.00;;;;;;4866454;29;20427;-44
2023/11/06 07:21:54;;;;;;;10.03;9.27;;;12.10;1.00;;;;;;4865203;29;20539;-43
2023/11/06 07:24:20;;;;;;;10.57;10.07;;;12.20;1.00;;;;;;4865728;29;20495;-48
2023/11/06 07:26:46;;;;;;;10.30;9.70;;;12.20;1.00;;;;;;4848483;29;20803;-42
2023/11/06 07:29:11;;;;;;;8.70;8.30;;;12.20;1.00;;;;;;4865853;29;20188;-41
2023/11/06 07:31:37;;;;;;;10.63;10.03;;;12.20;1.00;;;;;;4865494;29;20246;-42
2023/11/06 07:34:03;;;;;;;9.20;8.80;;;12.10;1.00;;;;;;4865001;29;20208;-41
2023/11/06 07:36:28;;;;;;;9.93;9.53;;;12.10;1.00;;;;;;4865527;29;20215;-42
2023/11/06 07:38:54;;;;;;;9.73;9.13;;;12.20;1.00;;;;;;4866645;29;20432;-41
2023/11/06 07:41:20;;;;;;;10.37;9.77;;;12.20;1.00;;;;;;4865528;29;20184;-42
2023/11/06 07:43:47;;;;;;;9.97;9.47;;;12.30;1.00;;;;;;4866566;29;20195;-41
2023/11/06 07:46:19;;;;;;;10.10;9.70;;;12.30;1.00;;;;;;4866490;29;20207;-42
2023/11/06 07:48:48;;;;;;;9.63;8.97;;;12.40;1.00;;;;;;4866220;29;20432;-41
2023/11/06 07:51:14;;;;;;;9.60;9.20;;;12.50;1.00;;;;;;4866759;29;20434;-41
2023/11/06 07:53:40;;;;;;;10.47;9.87;;;12.60;1.00;;;;;;4866733;29;20432;-41
2023/11/06 07:56:09;;;;;;;9.70;9.30;;;12.60;1.00;;;;;;4866829;29;20192;-41
2023/11/06 07:58:35;;;;;;;10.27;9.53;;;12.70;1.00;;;;;;4866656;29;20770;-40
2023/11/06 08:01:00;;;;;;;9.67;9.20;;;12.70;1.00;;;;;;4861445;29;20479;-42
2023/11/06 08:03:26;;;;;;;9.07;8.67;;;12.70;1.00;;;;;;4854990;29;20461;-52
2023/11/06 08:05:52;;;;;;;9.17;8.77;;;12.70;1.00;;;;;;4863534;29;20207;-45
2023/11/06 08:08:17;;;;;;;8.90;8.60;;;12.60;1.00;;;;;;4864749;29;20203;-45
2023/11/06 08:10:43;;;;;;;8.67;8.37;;;12.70;1.00;;;;;;4862273;29;20635;-47
2023/11/06 08:13:08;;;;;;;8.93;8.53;;;12.70;1.00;;;;;;4848211;29;20207;-44
2023/11/06 08:15:34;;;;;;;9.77;9.37;;;12.70;1.00;;;;;;4852177;29;20287;-47
2023/11/06 08:18:00;;;;;;;10.03;9.57;;;12.90;1.00;;;;;;4867934;29;20242;-50
2023/11/06 08:20:26;;;;;;;9.67;9.27;;;12.90;1.00;;;;;;4870384;29;20298;-50
2023/11/06 08:22:51;;;;;;;10.20;9.70;;;12.90;1.00;;;;;;4869846;29;20176;-47
2023/11/06 08:25:18;;;;;;;8.87;8.47;;;12.80;1.00;;;;;;4869865;29;20426;-47
2023/11/06 08:27:44;;;;;;;10.00;9.20;;;12.80;1.00;;;;;;4869878;29;20283;-45
2023/11/06 08:30:12;;;;;;;9.60;9.20;;;12.80;1.00;;;;;;4869388;29;20977;-49
2023/11/06 08:32:37;;;;;;;9.93;9.30;;;12.80;1.00;;;;;;4869029;29;20188;-46
2023/11/06 08:35:07;;;;;;;9.80;9.40;;;12.90;1.00;;;;;;4869711;29;20490;-47
2023/11/06 08:37:33;;;;;;;8.93;8.30;;;13.20;1.00;;;;;;4869500;29;20195;-44
2023/11/06 08:39:59;;;;;;;8.50;8.20;;;13.60;1.00;;;;;;4869831;29;20431;-49
2023/11/06 08:42:24;;;;;;;9.07;8.67;;;14.00;1.00;;;;;;4869714;29;20408;-48
2023/11/06 08:44:50;;;;;;;8.90;8.40;;;14.50;1.00;;;;;;4868932;29;20579;-49
2023/11/06 08:47:16;;;;;;;9.90;9.40;;;14.80;99.90;;;;;;4868155;29;20207;-49
2023/11/06 08:49:42;;;;;;;8.80;8.33;;;14.50;99.90;;;;;;4869682;29;20255;-49
2023/11/06 08:52:08;;;;;;;8.70;8.30;;;14.60;99.90;;;;;;4868020;29;20440;-46
2023/11/06 08:54:34;;;;;;;9.50;9.10;;;15.10;99.90;;;;;;4869102;29;20251;-49
2023/11/06 08:57:00;;;;;;;9.20;8.77;;;16.00;99.90;;;;;;4868650;29;20532;-47
2023/11/06 08:59:26;;;;;;;9.50;9.10;;;16.50;99.90;;;;;;4869587;29;20480;-48
2023/11/06 09:01:52;;;;;;;9.23;8.83;;;16.60;99.90;;;;;;4868760;29;20198;-45
2023/11/06 09:04:19;;;;;;;8.53;8.23;;;16.30;99.90;;;;;;4869167;29;20436;-49
2023/11/06 09:06:45;;;;;;;9.57;9.17;;;16.10;99.90;;;;;;4868829;29;20271;-46
2023/11/06 09:09:11;;;;;;;9.40;8.90;;;16.00;99.90;;;;;;4869706;29;20420;-50
2023/11/06 09:11:41;;;;;;;9.50;9.10;;;16.40;99.90;;;;;;4868532;29;20444;-49
2023/11/06 09:14:10;;;;;;;9.83;9.23;;;16.30;99.90;;;;;;4869227;29;21332;-48
2023/11/06 09:16:38;;;;;;;9.33;9.00;;;16.00;99.90;;;;;;4868250;29;20440;-49
2023/11/06 09:19:07;;;;;;;8.20;7.80;;;15.90;99.90;;;;;;4869330;29;20784;-49
2023/11/06 09:21:33;;;;;;;8.57;8.17;;;15.70;99.90;;;;;;4868259;29;20448;-48
2023/11/06 09:23:59;;;;;;;8.60;8.30;;;15.40;99.90;;;;;;4869267;29;21038;-47
2023/11/06 09:26:25;;;;;;;8.87;8.47;;;15.40;99.90;;;;;;4867900;29;20531;-49
2023/11/06 09:28:52;;;;;;;9.97;9.57;;;15.20;99.90;;;;;;4869551;29;20198;-45
2023/11/06 09:31:20;;;;;;;9.27;8.97;;;14.90;99.90;;;;;;4868405;29;20176;-47
2023/11/06 09:33:52;;;;;;;10.23;9.73;;;15.10;99.90;;;;;;4868448;29;20571;-49
2023/11/06 09:36:19;;;;;;;9.80;9.40;;;15.60;99.90;;;;;;4868187;29;20797;-48
2023/11/06 09:38:45;;;;;;;9.90;9.50;;;16.00;99.90;;;;;;4868542;29;20993;-51
2023/11/06 09:41:13;;;;;;;10.23;9.73;;;15.90;99.90;;;;;;4868964;29;20447;-47
2023/11/06 09:43:42;;;;;;;9.83;9.43;;;16.10;99.90;;;;;;4868688;29;20431;-48
2023/11/06 09:46:09;;;;;;;9.10;8.80;;;16.20;99.90;;;;;;4867343;29;20444;-48
2023/11/06 09:48:36;;;;;;;8.70;8.40;;;16.20;99.90;;;;;;4867889;29;20453;-47
2023/11/06 09:51:09;;;;;;;9.30;8.90;;;16.00;99.90;;;;;;4868719;29;20520;-47
2023/11/06 09:53:36;;;;;;;8.73;8.33;;;15.90;99.90;;;;;;4867829;29;20464;-54
2023/11/06 09:56:04;;;;;;;9.17;8.80;;;15.80;99.90;;;;;;4868470;29;20431;-49
2023/11/06 09:58:29;;;;;;;9.90;9.47;;;15.40;99.90;;;;;;4868224;29;20413;-46
2023/11/06 10:00:55;;;;;;;9.73;9.23;;;15.10;99.90;;;;;;4868047;29;20475;-47
2023/11/06 10:03:20;;;;;;;9.70;9.20;;;14.90;99.90;;;;;;4866925;29;20640;-52
2023/11/06 10:05:46;;;;;;;9.03;8.70;;;14.50;99.90;;;;;;4866586;29;20192;-47
2023/11/06 10:08:28;;;;;;;9.13;8.73;;;14.30;99.90;;;;;;4867675;29;20279;-46
2023/11/06 10:11:03;;;;;;;9.30;9.00;;;14.00;99.90;;;;;;4866571;29;20188;-48
2023/11/06 10:13:29;;;;;;;9.97;9.53;;;13.80;99.90;;;;;;4863605;29;20466;-51
2023/11/06 10:15:56;;;;;;;8.87;8.47;;;13.80;99.90;;;;;;4867541;29;21117;-45
2023/11/06 10:18:25;;;;;;;9.53;9.13;;;13.80;99.90;;;;;;4866860;29;20784;-49
2023/11/06 10:20:55;;;;;;;9.60;9.10;;;13.80;99.90;;;;;;4867959;29;20425;-47
2023/11/06 10:23:30;;;;;;;9.50;9.00;;;13.80;99.90;;;;;;4867942;29;20515;-49
2023/11/06 10:26:13;;;;;;;10.17;9.57;;;14.10;99.90;;;;;;4867440;29;20527;-49
2023/11/06 10:28:39;;;;;;;8.97;8.47;;;14.60;99.90;;;;;;4867546;29;20436;-47
2023/11/06 10:31:05;;;;;;;8.90;8.50;;;14.90;99.90;;;;;;4866442;29;20448;-46
2023/11/06 10:33:32;;;;;;;9.70;9.20;;;15.20;99.90;;;;;;4866458;29;20467;-48
2023/11/06 10:35:59;;;;;;;10.13;9.73;;;15.10;99.90;;;;;;4867372;29;21701;-47
2023/11/06 10:38:30;;;;;;;10.30;9.70;;;15.20;99.90;;;;;;4867385;29;20450;-51
2023/11/06 10:41:13;;;;;;;9.30;8.90;;;15.10;99.90;;;;;;4867833;29;20442;-50
2023/11/06 10:43:41;;;;;;;9.40;9.00;;;15.00;99.90;;;;;;4867131;29;20473;-47
2023/11/06 10:46:10;;;;;;;9.03;8.63;;;14.90;99.90;;;;;;4866753;29;20468;-49
2023/11/06 10:48:45;;;;;;;9.60;9.20;;;14.80;99.90;;;;;;4866941;29;20515;-47
2023/11/06 10:51:12;;;;;;;9.77;9.27;;;14.50;99.90;;;;;;4866389;29;21784;-49
2023/11/06 10:53:39;;;;;;;9.43;8.83;;;14.30;99.90;;;;;;4867301;29;20907;-48
2023/11/06 10:56:07;;;;;;;9.70;9.30;;;14.00;99.90;;;;;;4867166;29;20468;-48
2023/11/06 10:58:36;;;;;;;9.23;8.83;;;14.00;99.90;;;;;;4867141;29;20833;-52
2023/11/06 11:01:04;;;;;;;9.17;8.77;;;14.00;99.90;;;;;;4865911;29;20916;-47
2023/11/06 11:03:31;;;;;;;9.40;9.00;;;14.00;99.90;;;;;;4867065;29;20459;-46
2023/11/06 11:20:10;;;;;;;10.80;10.30;;;14.00;99.90;;;;;;5099772;27;20655;-47
2023/11/06 11:23:12;;;;;;;10.97;10.47;;;14.30;99.90;;;;;;5091718;28;20479;-48
2023/11/06 11:25:56;;;;;;;9.90;9.40;;;14.20;99.90;;;;;;5025771;28;20189;-47
2023/11/06 11:28:23;;;;;;;10.30;9.70;;;14.10;99.90;;;;;;5068446;28;20477;-50
2023/11/06 11:30:49;;;;;;;9.80;9.40;;;13.90;99.90;;;;;;5085793;28;20456;-51
2023/11/06 11:33:55;;;;;;;10.63;9.90;;;13.80;99.90;;;;;;5084730;28;20464;-47
2023/11/06 11:36:40;;;;;;;10.97;10.43;;;13.80;99.90;;;;;;5080759;28;20188;-48
2023/11/06 11:39:14;;;;;;;10.60;10.20;;;13.90;99.90;;;;;;5085124;28;20481;-48
2023/11/06 11:42:15;;;;;;;10.10;9.53;;;13.80;99.90;;;;;;5084295;28;20419;-52
2023/11/06 11:44:51;;;;;;;11.00;10.20;;;13.90;99.90;;;;;;5042666;28;20851;-51
2023/11/06 11:47:17;;;;;;;10.77;10.27;;;14.60;99.90;;;;;;5078147;28;20441;-49
2023/11/06 11:49:46;;;;;;;11.10;10.60;;;15.20;99.90;;;;;;5085605;28;20915;-48
2023/11/06 11:52:24;;;;;;;10.97;10.40;;;15.90;99.90;;;;;;5072430;28;20976;-50
2023/11/06 11:54:51;;;;;;;11.30;10.70;;;16.20;99.90;;;;;;5086234;28;20529;-47
2023/11/06 11:57:16;;;;;;;10.27;9.67;;;16.50;99.90;;;;;;5077219;28;21230;-52
2023/11/06 11:59:52;;;;;;;10.20;9.70;;;16.60;99.90;;;;;;5111463;28;20438;-42
2023/11/06 12:02:27;;;;;;;10.30;9.70;;;16.70;99.90;;;;;;5095942;28;20192;-40
2023/11/06 12:04:59;;;;;;;10.80;10.23;;;17.20;99.90;;;;;;5082338;28;20846;-48
2023/11/06 12:07:28;;;;;;;10.90;10.40;;;17.00;99.90;;;;;;5082518;28;20423;-47
2023/11/06 12:09:55;;;;;;;10.40;9.90;;;17.10;99.90;;;;;;5084163;28;20470;-50
2023/11/06 12:12:26;;;;;;;11.80;10.93;;;17.50;99.90;;;;;;5082202;28;20419;-52
2023/11/06 12:14:53;;;;;;;10.80;10.20;;;17.50;99.90;;;;;;5083793;28;20468;-48
2023/11/06 12:17:28;;;;;;;10.13;9.53;;;17.60;99.90;;;;;;5081017;28;20485;-48
2023/11/06 12:19:55;;;;;;;10.53;10.10;;;18.00;99.90;;;;;;5074950;28;21041;-49
2023/11/06 12:22:22;;;;;;;10.87;10.30;;;18.40;99.90;;;;;;5071703;28;20840;-49
2023/11/06 12:24:47;;;;;;;11.10;10.50;;;18.70;99.90;;;;;;5069034;28;20458;-48
2023/11/06 12:27:13;;;;;;;10.20;9.80;;;18.60;99.90;;;;;;5070625;28;20442;-48
2023/11/06 12:29:39;;;;;;;11.23;10.67;;;18.70;99.90;;;;;;5071052;28;20655;-47
2023/11/06 12:32:18;;;;;;;10.60;10.10;;;18.70;99.90;;;;;;5068834;28;20209;-48
2023/11/06 12:34:43;;;;;;;11.00;10.37;;;18.40;99.90;;;;;;5068996;28;20450;-50
2023/11/06 12:37:09;;;;;;;10.60;10.10;;;18.10;99.90;;;;;;5068786;28;20416;-50
2023/11/06 12:39:36;;;;;;;10.83;10.30;;;18.10;99.90;;;;;;5070366;28;20185;-51
2023/11/06 12:42:03;;;;;;;11.00;10.50;;;18.40;99.90;;;;;;5069980;28;20184;-50
2023/11/06 12:44:40;;;;;;;10.60;10.13;;;18.50;99.90;;;;;;5070722;28;20435;-46
2023/11/06 12:47:09;;;;;;;9.53;9.13;;;18.20;99.90;;;;;;5067847;28;20442;-49
2023/11/06 12:49:48;;;;;;;9.40;9.00;;;18.20;99.90;;;;;;5070868;28;20454;-51
2023/11/06 12:52:21;;;;;;;10.30;9.80;;;18.20;99.90;;;;;;5069151;28;20454;-49
2023/11/06 12:54:50;;;;;;;10.20;9.80;;;18.20;99.90;;;;;;5070821;28;20428;-51
2023/11/06 12:57:18;;;;;;;10.70;10.10;;;17.90;99.90;;;;;;5072948;28;20454;-47
2023/11/06 12:59:45;;;;;;;10.33;9.83;;;18.20;99.90;;;;;;5075470;28;20816;-50